sensor_id;sensor_type;location;lat;lon;timestamp;P1;durP1;ratioP1;P2;durP2;ratioP2
78752;SDS011;68072;51.688;7.842;2023-08-07T00:00:19;6.00;;;2.77;;
78752;SDS011;68072;51.688;7.842;2023-08-07T00:02:44;6.40;;;2.60;;
78752;SDS011;68072;51.688;7.842;2023-08-07T00:05:09;4.80;;;2.93;;
78752;SDS011;68072;51.688;7.842;2023-08-07T00:07:34;4.20;;;2.63;;
78752;SDS011;68072;51.688;7.842;2023-08-07T00:10:00;4.87;;;3.27;;
78752;SDS011;68072;51.688;7.842;2023-08-07T00:12:26;6.03;;;2.70;;
78752;SDS011;68072;51.688;7.842;2023-08-07T00:14:52;3.80;;;2.60;;
78752;SDS011;68072;51.688;7.842;2023-08-07T00:17:17;3.58;;;2.53;;
78752;SDS011;68072;51.688;7.842;2023-08-07T00:19:42;4.33;;;2.90;;
78752;SDS011;68072;51.688;7.842;2023-08-07T00:22:08;4.43;;;2.73;;
78752;SDS011;68072;51.688;7.842;2023-08-07T00:24:33;4.75;;;2.70;;
78752;SDS011;68072;51.688;7.842;2023-08-07T00:26:58;3.00;;;2.60;;
78752;SDS011;68072;51.688;7.842;2023-08-07T00:29:24;5.03;;;2.83;;
78752;SDS011;68072;51.688;7.842;2023-08-07T00:31:49;3.93;;;2.50;;
78752;SDS011;68072;51.688;7.842;2023-08-07T00:34:14;2.43;;;2.13;;
78752;SDS011;68072;51.688;7.842;2023-08-07T00:36:40;5.00;;;2.50;;
78752;SDS011;68072;51.688;7.842;2023-08-07T00:39:05;3.87;;;2.37;;
78752;SDS011;68072;51.688;7.842;2023-08-07T00:41:30;4.47;;;2.63;;
78752;SDS011;68072;51.688;7.842;2023-08-07T00:43:56;3.90;;;3.23;;
78752;SDS011;68072;51.688;7.842;2023-08-07T00:46:21;4.60;;;2.73;;
78752;SDS011;68072;51.688;7.842;2023-08-07T00:48:46;2.83;;;2.63;;
78752;SDS011;68072;51.688;7.842;2023-08-07T00:51:11;2.90;;;2.57;;
78752;SDS011;68072;51.688;7.842;2023-08-07T00:53:37;2.87;;;2.57;;
78752;SDS011;68072;51.688;7.842;2023-08-07T00:56:03;2.88;;;2.63;;
78752;SDS011;68072;51.688;7.842;2023-08-07T00:58:28;4.07;;;2.90;;
78752;SDS011;68072;51.688;7.842;2023-08-07T01:00:54;2.95;;;2.47;;
78752;SDS011;68072;51.688;7.842;2023-08-07T01:03:19;4.77;;;2.20;;
78752;SDS011;68072;51.688;7.842;2023-08-07T01:05:45;3.03;;;2.47;;
78752;SDS011;68072;51.688;7.842;2023-08-07T01:08:10;5.87;;;2.87;;
78752;SDS011;68072;51.688;7.842;2023-08-07T01:10:40;3.00;;;2.55;;
78752;SDS011;68072;51.688;7.842;2023-08-07T01:13:23;3.25;;;2.30;;
78752;SDS011;68072;51.688;7.842;2023-08-07T01:15:49;2.35;;;2.15;;
78752;SDS011;68072;51.688;7.842;2023-08-07T01:18:17;3.00;;;2.20;;
78752;SDS011;68072;51.688;7.842;2023-08-07T01:20:42;2.35;;;1.92;;
78752;SDS011;68072;51.688;7.842;2023-08-07T01:23:07;2.77;;;1.63;;
78752;SDS011;68072;51.688;7.842;2023-08-07T01:25:33;2.10;;;1.90;;
78752;SDS011;68072;51.688;7.842;2023-08-07T01:28:02;3.42;;;2.10;;
78752;SDS011;68072;51.688;7.842;2023-08-07T01:30:36;2.30;;;1.70;;
78752;SDS011;68072;51.688;7.842;2023-08-07T01:35:51;2.57;;;1.87;;
78752;SDS011;68072;51.688;7.842;2023-08-07T01:38:14;2.45;;;1.73;;
78752;SDS011;68072;51.688;7.842;2023-08-07T01:40:39;2.70;;;1.80;;
78752;SDS011;68072;51.688;7.842;2023-08-07T01:43:05;2.20;;;1.60;;
78752;SDS011;68072;51.688;7.842;2023-08-07T01:45:30;3.13;;;1.87;;
78752;SDS011;68072;51.688;7.842;2023-08-07T01:47:56;1.50;;;1.40;;
78752;SDS011;68072;51.688;7.842;2023-08-07T01:50:22;2.55;;;1.75;;
78752;SDS011;68072;51.688;7.842;2023-08-07T01:52:47;2.70;;;1.60;;
78752;SDS011;68072;51.688;7.842;2023-08-07T01:55:13;2.73;;;1.40;;
78752;SDS011;68072;51.688;7.842;2023-08-07T01:57:38;4.65;;;2.25;;
78752;SDS011;68072;51.688;7.842;2023-08-07T02:00:04;2.40;;;1.40;;
78752;SDS011;68072;51.688;7.842;2023-08-07T02:02:29;1.98;;;1.15;;
78752;SDS011;68072;51.688;7.842;2023-08-07T02:04:54;1.57;;;0.90;;
78752;SDS011;68072;51.688;7.842;2023-08-07T02:07:19;3.53;;;1.27;;
78752;SDS011;68072;51.688;7.842;2023-08-07T02:09:45;2.23;;;1.10;;
78752;SDS011;68072;51.688;7.842;2023-08-07T02:12:10;2.30;;;1.20;;
78752;SDS011;68072;51.688;7.842;2023-08-07T02:14:35;1.43;;;1.10;;
78752;SDS011;68072;51.688;7.842;2023-08-07T02:17:00;1.43;;;0.90;;
78752;SDS011;68072;51.688;7.842;2023-08-07T02:19:26;2.63;;;0.80;;
78752;SDS011;68072;51.688;7.842;2023-08-07T02:21:51;3.00;;;0.70;;
78752;SDS011;68072;51.688;7.842;2023-08-07T02:24:16;3.40;;;0.73;;
78752;SDS011;68072;51.688;7.842;2023-08-07T02:26:43;1.85;;;1.00;;
78752;SDS011;68072;51.688;7.842;2023-08-07T02:29:08;2.00;;;1.33;;
78752;SDS011;68072;51.688;7.842;2023-08-07T02:31:34;1.05;;;1.02;;
78752;SDS011;68072;51.688;7.842;2023-08-07T02:33:59;1.00;;;1.00;;
78752;SDS011;68072;51.688;7.842;2023-08-07T02:36:24;2.03;;;0.80;;
78752;SDS011;68072;51.688;7.842;2023-08-07T02:38:49;1.20;;;1.10;;
78752;SDS011;68072;51.688;7.842;2023-08-07T02:41:15;2.67;;;1.00;;
78752;SDS011;68072;51.688;7.842;2023-08-07T02:43:40;1.20;;;1.10;;
78752;SDS011;68072;51.688;7.842;2023-08-07T02:46:05;7.73;;;1.20;;
78752;SDS011;68072;51.688;7.842;2023-08-07T02:48:30;2.13;;;1.27;;
78752;SDS011;68072;51.688;7.842;2023-08-07T02:50:56;1.70;;;1.20;;
78752;SDS011;68072;51.688;7.842;2023-08-07T02:53:21;1.00;;;1.00;;
78752;SDS011;68072;51.688;7.842;2023-08-07T02:55:46;2.13;;;1.40;;
78752;SDS011;68072;51.688;7.842;2023-08-07T02:58:11;2.03;;;1.20;;
78752;SDS011;68072;51.688;7.842;2023-08-07T03:00:36;1.03;;;1.03;;
78752;SDS011;68072;51.688;7.842;2023-08-07T03:03:02;1.53;;;1.00;;
78752;SDS011;68072;51.688;7.842;2023-08-07T03:05:27;1.20;;;1.10;;
78752;SDS011;68072;51.688;7.842;2023-08-07T03:07:52;1.37;;;1.00;;
78752;SDS011;68072;51.688;7.842;2023-08-07T03:10:17;1.00;;;1.00;;
78752;SDS011;68072;51.688;7.842;2023-08-07T03:12:43;2.63;;;1.23;;
78752;SDS011;68072;51.688;7.842;2023-08-07T03:15:08;1.27;;;1.03;;
78752;SDS011;68072;51.688;7.842;2023-08-07T03:17:33;1.45;;;1.35;;
78752;SDS011;68072;51.688;7.842;2023-08-07T03:19:59;1.58;;;1.13;;
78752;SDS011;68072;51.688;7.842;2023-08-07T03:22:24;1.30;;;1.20;;
78752;SDS011;68072;51.688;7.842;2023-08-07T03:24:49;1.40;;;1.40;;
78752;SDS011;68072;51.688;7.842;2023-08-07T03:27:15;1.40;;;1.30;;
78752;SDS011;68072;51.688;7.842;2023-08-07T03:29:40;1.83;;;1.33;;
78752;SDS011;68072;51.688;7.842;2023-08-07T03:32:05;1.60;;;1.48;;
78752;SDS011;68072;51.688;7.842;2023-08-07T03:34:31;1.85;;;1.45;;
78752;SDS011;68072;51.688;7.842;2023-08-07T03:36:56;2.93;;;1.47;;
78752;SDS011;68072;51.688;7.842;2023-08-07T03:39:21;3.23;;;1.30;;
78752;SDS011;68072;51.688;7.842;2023-08-07T03:41:46;3.20;;;1.20;;
78752;SDS011;68072;51.688;7.842;2023-08-07T03:44:12;2.97;;;1.50;;
78752;SDS011;68072;51.688;7.842;2023-08-07T03:46:37;1.75;;;1.27;;
78752;SDS011;68072;51.688;7.842;2023-08-07T03:49:02;1.60;;;1.50;;
78752;SDS011;68072;51.688;7.842;2023-08-07T03:51:27;1.60;;;1.50;;
78752;SDS011;68072;51.688;7.842;2023-08-07T03:53:54;2.53;;;1.30;;
78752;SDS011;68072;51.688;7.842;2023-08-07T03:56:19;3.37;;;1.57;;
78752;SDS011;68072;51.688;7.842;2023-08-07T03:58:44;1.77;;;1.30;;
78752;SDS011;68072;51.688;7.842;2023-08-07T04:01:10;1.17;;;1.10;;
78752;SDS011;68072;51.688;7.842;2023-08-07T04:03:36;1.08;;;0.93;;
78752;SDS011;68072;51.688;7.842;2023-08-07T04:06:02;1.85;;;1.15;;
78752;SDS011;68072;51.688;7.842;2023-08-07T04:08:27;0.88;;;0.88;;
78752;SDS011;68072;51.688;7.842;2023-08-07T04:13:24;2.47;;;1.13;;
78752;SDS011;68072;51.688;7.842;2023-08-07T04:15:49;0.80;;;0.80;;
78752;SDS011;68072;51.688;7.842;2023-08-07T04:18:15;1.50;;;1.00;;
78752;SDS011;68072;51.688;7.842;2023-08-07T04:20:40;0.50;;;0.50;;
78752;SDS011;68072;51.688;7.842;2023-08-07T04:23:05;0.60;;;0.50;;
78752;SDS011;68072;51.688;7.842;2023-08-07T04:25:31;0.50;;;0.50;;
78752;SDS011;68072;51.688;7.842;2023-08-07T04:27:56;1.43;;;0.57;;
78752;SDS011;68072;51.688;7.842;2023-08-07T04:30:21;0.63;;;0.63;;
78752;SDS011;68072;51.688;7.842;2023-08-07T04:32:46;3.93;;;0.90;;
78752;SDS011;68072;51.688;7.842;2023-08-07T04:35:12;1.03;;;0.90;;
78752;SDS011;68072;51.688;7.842;2023-08-07T04:37:37;0.80;;;0.80;;
78752;SDS011;68072;51.688;7.842;2023-08-07T04:40:02;1.73;;;1.10;;
78752;SDS011;68072;51.688;7.842;2023-08-07T04:42:28;0.70;;;0.70;;
78752;SDS011;68072;51.688;7.842;2023-08-07T04:44:53;2.43;;;1.17;;
78752;SDS011;68072;51.688;7.842;2023-08-07T04:47:18;2.95;;;1.33;;
78752;SDS011;68072;51.688;7.842;2023-08-07T04:49:44;1.83;;;1.13;;
78752;SDS011;68072;51.688;7.842;2023-08-07T04:52:09;3.07;;;1.40;;
78752;SDS011;68072;51.688;7.842;2023-08-07T04:54:34;4.53;;;1.40;;
78752;SDS011;68072;51.688;7.842;2023-08-07T04:57:00;4.23;;;1.00;;
78752;SDS011;68072;51.688;7.842;2023-08-07T04:59:25;0.83;;;0.83;;
78752;SDS011;68072;51.688;7.842;2023-08-07T05:01:50;1.40;;;1.23;;
78752;SDS011;68072;51.688;7.842;2023-08-07T05:04:15;4.07;;;1.57;;
78752;SDS011;68072;51.688;7.842;2023-08-07T05:06:40;1.80;;;0.93;;
78752;SDS011;68072;51.688;7.842;2023-08-07T05:09:06;3.33;;;1.33;;
78752;SDS011;68072;51.688;7.842;2023-08-07T05:11:31;4.05;;;1.48;;
78752;SDS011;68072;51.688;7.842;2023-08-07T05:13:57;3.63;;;1.37;;
78752;SDS011;68072;51.688;7.842;2023-08-07T05:16:22;4.30;;;1.63;;
78752;SDS011;68072;51.688;7.842;2023-08-07T05:18:48;3.75;;;1.90;;
78752;SDS011;68072;51.688;7.842;2023-08-07T05:21:13;1.73;;;1.57;;
78752;SDS011;68072;51.688;7.842;2023-08-07T05:23:39;2.73;;;1.70;;
78752;SDS011;68072;51.688;7.842;2023-08-07T05:26:04;5.70;;;1.70;;
78752;SDS011;68072;51.688;7.842;2023-08-07T05:28:29;2.27;;;1.63;;
78752;SDS011;68072;51.688;7.842;2023-08-07T05:30:54;2.77;;;1.90;;
78752;SDS011;68072;51.688;7.842;2023-08-07T05:33:20;1.57;;;1.30;;
78752;SDS011;68072;51.688;7.842;2023-08-07T05:35:45;4.82;;;2.35;;
78752;SDS011;68072;51.688;7.842;2023-08-07T05:38:10;5.97;;;1.63;;
78752;SDS011;68072;51.688;7.842;2023-08-07T05:40:36;3.10;;;2.00;;
78752;SDS011;68072;51.688;7.842;2023-08-07T05:43:01;5.05;;;1.77;;
78752;SDS011;68072;51.688;7.842;2023-08-07T05:45:26;8.53;;;2.40;;
78752;SDS011;68072;51.688;7.842;2023-08-07T05:47:52;8.47;;;2.03;;
78752;SDS011;68072;51.688;7.842;2023-08-07T05:50:17;6.17;;;2.30;;
78752;SDS011;68072;51.688;7.842;2023-08-07T05:52:42;4.90;;;2.20;;
78752;SDS011;68072;51.688;7.842;2023-08-07T05:55:07;6.90;;;2.10;;
78752;SDS011;68072;51.688;7.842;2023-08-07T05:57:33;8.50;;;2.43;;
78752;SDS011;68072;51.688;7.842;2023-08-07T05:59:58;2.28;;;1.60;;
78752;SDS011;68072;51.688;7.842;2023-08-07T06:02:24;5.10;;;2.13;;
78752;SDS011;68072;51.688;7.842;2023-08-07T06:04:49;7.50;;;2.42;;
78752;SDS011;68072;51.688;7.842;2023-08-07T06:07:14;4.07;;;2.30;;
78752;SDS011;68072;51.688;7.842;2023-08-07T06:09:40;3.67;;;2.40;;
78752;SDS011;68072;51.688;7.842;2023-08-07T06:12:05;4.13;;;2.03;;
78752;SDS011;68072;51.688;7.842;2023-08-07T06:14:30;4.88;;;2.05;;
78752;SDS011;68072;51.688;7.842;2023-08-07T06:16:56;4.23;;;2.30;;
78752;SDS011;68072;51.688;7.842;2023-08-07T06:19:23;2.75;;;2.20;;
78752;SDS011;68072;51.688;7.842;2023-08-07T06:21:48;2.97;;;2.38;;
78752;SDS011;68072;51.688;7.842;2023-08-07T06:24:13;3.67;;;2.47;;
78752;SDS011;68072;51.688;7.842;2023-08-07T06:26:39;5.47;;;2.47;;
78752;SDS011;68072;51.688;7.842;2023-08-07T06:29:04;3.80;;;2.17;;
78752;SDS011;68072;51.688;7.842;2023-08-07T06:31:29;3.93;;;2.50;;
78752;SDS011;68072;51.688;7.842;2023-08-07T06:33:54;5.20;;;3.30;;
78752;SDS011;68072;51.688;7.842;2023-08-07T06:36:20;4.47;;;2.97;;
78752;SDS011;68072;51.688;7.842;2023-08-07T06:38:45;6.35;;;3.00;;
78752;SDS011;68072;51.688;7.842;2023-08-07T06:41:10;4.33;;;2.67;;
78752;SDS011;68072;51.688;7.842;2023-08-07T06:43:35;6.77;;;2.60;;
78752;SDS011;68072;51.688;7.842;2023-08-07T06:46:01;3.37;;;2.23;;
78752;SDS011;68072;51.688;7.842;2023-08-07T06:48:26;4.53;;;2.30;;
78752;SDS011;68072;51.688;7.842;2023-08-07T06:50:51;2.65;;;2.20;;
78752;SDS011;68072;51.688;7.842;2023-08-07T06:53:16;3.93;;;2.43;;
78752;SDS011;68072;51.688;7.842;2023-08-07T06:55:42;3.17;;;2.03;;
78752;SDS011;68072;51.688;7.842;2023-08-07T06:58:07;1.88;;;1.73;;
78752;SDS011;68072;51.688;7.842;2023-08-07T07:00:33;2.60;;;2.28;;
78752;SDS011;68072;51.688;7.842;2023-08-07T07:03:00;1.67;;;1.58;;
78752;SDS011;68072;51.688;7.842;2023-08-07T07:05:25;3.17;;;2.05;;
78752;SDS011;68072;51.688;7.842;2023-08-07T07:07:50;4.43;;;1.80;;
78752;SDS011;68072;51.688;7.842;2023-08-07T07:10:16;3.47;;;1.87;;
78752;SDS011;68072;51.688;7.842;2023-08-07T07:12:41;3.53;;;2.13;;
78752;SDS011;68072;51.688;7.842;2023-08-07T07:15:06;4.90;;;2.33;;
78752;SDS011;68072;51.688;7.842;2023-08-07T07:17:31;2.90;;;2.00;;
78752;SDS011;68072;51.688;7.842;2023-08-07T07:19:57;3.97;;;2.53;;
78752;SDS011;68072;51.688;7.842;2023-08-07T07:22:22;6.43;;;2.33;;
78752;SDS011;68072;51.688;7.842;2023-08-07T07:24:47;3.42;;;1.77;;
78752;SDS011;68072;51.688;7.842;2023-08-07T07:27:13;3.20;;;2.37;;
78752;SDS011;68072;51.688;7.842;2023-08-07T07:29:38;5.30;;;2.50;;
78752;SDS011;68072;51.688;7.842;2023-08-07T07:32:03;4.53;;;2.27;;
78752;SDS011;68072;51.688;7.842;2023-08-07T07:34:29;4.53;;;2.53;;
78752;SDS011;68072;51.688;7.842;2023-08-07T07:36:54;4.20;;;2.40;;
78752;SDS011;68072;51.688;7.842;2023-08-07T07:39:19;3.37;;;2.53;;
78752;SDS011;68072;51.688;7.842;2023-08-07T07:41:45;7.88;;;2.35;;
78752;SDS011;68072;51.688;7.842;2023-08-07T07:44:10;5.38;;;2.30;;
78752;SDS011;68072;51.688;7.842;2023-08-07T07:46:35;7.73;;;2.53;;
78752;SDS011;68072;51.688;7.842;2023-08-07T07:49:01;5.47;;;2.97;;
78752;SDS011;68072;51.688;7.842;2023-08-07T07:51:28;4.18;;;2.40;;
78752;SDS011;68072;51.688;7.842;2023-08-07T07:53:54;2.38;;;1.77;;
78752;SDS011;68072;51.688;7.842;2023-08-07T07:56:19;3.23;;;2.50;;
78752;SDS011;68072;51.688;7.842;2023-08-07T07:58:44;4.80;;;2.50;;
78752;SDS011;68072;51.688;7.842;2023-08-07T08:01:10;7.30;;;2.47;;
78752;SDS011;68072;51.688;7.842;2023-08-07T08:03:36;9.95;;;2.95;;
78752;SDS011;68072;51.688;7.842;2023-08-07T08:06:02;7.32;;;2.30;;
78752;SDS011;68072;51.688;7.842;2023-08-07T08:08:28;6.82;;;2.60;;
78752;SDS011;68072;51.688;7.842;2023-08-07T08:10:53;4.73;;;2.50;;
78752;SDS011;68072;51.688;7.842;2023-08-07T08:13:19;5.50;;;2.40;;
78752;SDS011;68072;51.688;7.842;2023-08-07T08:15:44;5.65;;;1.67;;
78752;SDS011;68072;51.688;7.842;2023-08-07T08:18:10;7.55;;;2.40;;
78752;SDS011;68072;51.688;7.842;2023-08-07T08:20:36;7.20;;;2.08;;
78752;SDS011;68072;51.688;7.842;2023-08-07T08:23:01;3.63;;;1.48;;
78752;SDS011;68072;51.688;7.842;2023-08-07T08:25:26;2.33;;;1.87;;
78752;SDS011;68072;51.688;7.842;2023-08-07T08:27:51;3.67;;;1.70;;
78752;SDS011;68072;51.688;7.842;2023-08-07T08:30:17;1.70;;;1.40;;
78752;SDS011;68072;51.688;7.842;2023-08-07T08:32:42;2.20;;;1.48;;
78752;SDS011;68072;51.688;7.842;2023-08-07T08:35:08;2.13;;;1.50;;
78752;SDS011;68072;51.688;7.842;2023-08-07T08:37:33;3.43;;;1.60;;
78752;SDS011;68072;51.688;7.842;2023-08-07T08:39:58;3.97;;;1.60;;
78752;SDS011;68072;51.688;7.842;2023-08-07T08:42:24;2.53;;;1.38;;
78752;SDS011;68072;51.688;7.842;2023-08-07T08:44:53;3.28;;;1.67;;
78752;SDS011;68072;51.688;7.842;2023-08-07T08:47:18;3.90;;;1.85;;
78752;SDS011;68072;51.688;7.842;2023-08-07T08:49:47;6.10;;;1.70;;
78752;SDS011;68072;51.688;7.842;2023-08-07T08:52:12;3.90;;;1.50;;
78752;SDS011;68072;51.688;7.842;2023-08-07T08:54:38;4.63;;;1.65;;
78752;SDS011;68072;51.688;7.842;2023-08-07T08:57:03;3.80;;;1.60;;
78752;SDS011;68072;51.688;7.842;2023-08-07T08:59:29;2.70;;;1.63;;
78752;SDS011;68072;51.688;7.842;2023-08-07T09:01:55;5.35;;;1.85;;
78752;SDS011;68072;51.688;7.842;2023-08-07T09:04:21;3.83;;;1.55;;
78752;SDS011;68072;51.688;7.842;2023-08-07T09:06:46;2.13;;;1.77;;
78752;SDS011;68072;51.688;7.842;2023-08-07T09:09:12;5.95;;;2.70;;
78752;SDS011;68072;51.688;7.842;2023-08-07T09:11:38;2.90;;;2.13;;
78752;SDS011;68072;51.688;7.842;2023-08-07T09:14:04;6.25;;;1.83;;
78752;SDS011;68072;51.688;7.842;2023-08-07T09:16:29;4.07;;;1.85;;
78752;SDS011;68072;51.688;7.842;2023-08-07T09:18:55;4.43;;;1.73;;
78752;SDS011;68072;51.688;7.842;2023-08-07T09:21:21;5.10;;;1.50;;
78752;SDS011;68072;51.688;7.842;2023-08-07T09:23:46;5.05;;;2.05;;
78752;SDS011;68072;51.688;7.842;2023-08-07T09:26:11;5.00;;;2.35;;
78752;SDS011;68072;51.688;7.842;2023-08-07T09:28:37;2.40;;;1.83;;
78752;SDS011;68072;51.688;7.842;2023-08-07T09:31:02;11.45;;;2.90;;
78752;SDS011;68072;51.688;7.842;2023-08-07T09:33:30;4.22;;;2.13;;
78752;SDS011;68072;51.688;7.842;2023-08-07T09:35:59;6.28;;;2.30;;
78752;SDS011;68072;51.688;7.842;2023-08-07T09:38:31;8.13;;;2.33;;
78752;SDS011;68072;51.688;7.842;2023-08-07T09:43:23;3.45;;;1.63;;
78752;SDS011;68072;51.688;7.842;2023-08-07T09:45:48;5.53;;;1.98;;
78752;SDS011;68072;51.688;7.842;2023-08-07T09:48:22;9.13;;;2.47;;
78752;SDS011;68072;51.688;7.842;2023-08-07T09:50:47;3.90;;;1.85;;
78752;SDS011;68072;51.688;7.842;2023-08-07T09:53:12;3.00;;;1.60;;
78752;SDS011;68072;51.688;7.842;2023-08-07T09:55:38;1.50;;;1.40;;
78752;SDS011;68072;51.688;7.842;2023-08-07T09:58:03;4.50;;;1.80;;
78752;SDS011;68072;51.688;7.842;2023-08-07T10:00:33;6.28;;;2.40;;
78752;SDS011;68072;51.688;7.842;2023-08-07T10:02:58;4.78;;;2.17;;
78752;SDS011;68072;51.688;7.842;2023-08-07T10:05:24;8.30;;;2.35;;
78752;SDS011;68072;51.688;7.842;2023-08-07T10:07:49;3.00;;;1.97;;
78752;SDS011;68072;51.688;7.842;2023-08-07T10:10:15;6.65;;;2.10;;
78752;SDS011;68072;51.688;7.842;2023-08-07T10:12:41;8.20;;;2.38;;
78752;SDS011;68072;51.688;7.842;2023-08-07T10:15:06;3.63;;;1.60;;
78752;SDS011;68072;51.688;7.842;2023-08-07T10:17:32;6.40;;;2.03;;
78752;SDS011;68072;51.688;7.842;2023-08-07T10:19:58;7.05;;;1.95;;
78752;SDS011;68072;51.688;7.842;2023-08-07T10:22:24;6.60;;;1.50;;
78752;SDS011;68072;51.688;7.842;2023-08-07T10:24:50;2.97;;;1.58;;
78752;SDS011;68072;51.688;7.842;2023-08-07T10:27:15;4.47;;;1.80;;
78752;SDS011;68072;51.688;7.842;2023-08-07T10:29:41;7.20;;;1.55;;
78752;SDS011;68072;51.688;7.842;2023-08-07T10:32:07;4.40;;;2.05;;
78752;SDS011;68072;51.688;7.842;2023-08-07T10:34:33;2.83;;;1.38;;
78752;SDS011;68072;51.688;7.842;2023-08-07T10:36:58;2.03;;;1.40;;
78752;SDS011;68072;51.688;7.842;2023-08-07T10:39:23;5.50;;;1.70;;
78752;SDS011;68072;51.688;7.842;2023-08-07T10:41:52;6.10;;;1.90;;
78752;SDS011;68072;51.688;7.842;2023-08-07T10:46:47;9.40;;;2.35;;
78752;SDS011;68072;51.688;7.842;2023-08-07T10:49:29;5.03;;;1.95;;
78752;SDS011;68072;51.688;7.842;2023-08-07T10:51:55;5.65;;;2.20;;
78752;SDS011;68072;51.688;7.842;2023-08-07T10:54:20;7.80;;;2.00;;
78752;SDS011;68072;51.688;7.842;2023-08-07T10:56:51;5.23;;;1.83;;
78752;SDS011;68072;51.688;7.842;2023-08-07T10:59:17;6.05;;;2.00;;
78752;SDS011;68072;51.688;7.842;2023-08-07T11:01:42;6.78;;;2.60;;
78752;SDS011;68072;51.688;7.842;2023-08-07T11:04:08;3.60;;;1.40;;
78752;SDS011;68072;51.688;7.842;2023-08-07T11:06:35;3.28;;;1.50;;
78752;SDS011;68072;51.688;7.842;2023-08-07T11:09:01;5.93;;;1.67;;
78752;SDS011;68072;51.688;7.842;2023-08-07T11:11:28;8.13;;;1.67;;
78752;SDS011;68072;51.688;7.842;2023-08-07T11:13:53;5.32;;;1.70;;
78752;SDS011;68072;51.688;7.842;2023-08-07T11:16:19;3.20;;;1.43;;
78752;SDS011;68072;51.688;7.842;2023-08-07T11:18:47;6.47;;;1.83;;
78752;SDS011;68072;51.688;7.842;2023-08-07T11:21:12;2.88;;;1.58;;
78752;SDS011;68072;51.688;7.842;2023-08-07T11:23:41;2.73;;;1.57;;
78752;SDS011;68072;51.688;7.842;2023-08-07T11:26:08;4.57;;;1.40;;
78752;SDS011;68072;51.688;7.842;2023-08-07T11:28:34;3.00;;;2.22;;
78752;SDS011;68072;51.688;7.842;2023-08-07T11:30:59;7.07;;;1.60;;
78752;SDS011;68072;51.688;7.842;2023-08-07T11:33:25;2.28;;;1.30;;
78752;SDS011;68072;51.688;7.842;2023-08-07T11:35:51;2.55;;;1.50;;
78752;SDS011;68072;51.688;7.842;2023-08-07T11:38:32;4.93;;;1.63;;
78752;SDS011;68072;51.688;7.842;2023-08-07T11:41:01;4.63;;;2.00;;
78752;SDS011;68072;51.688;7.842;2023-08-07T11:43:28;6.03;;;1.73;;
78752;SDS011;68072;51.688;7.842;2023-08-07T11:45:54;4.40;;;1.80;;
78752;SDS011;68072;51.688;7.842;2023-08-07T11:48:19;5.22;;;1.98;;
78752;SDS011;68072;51.688;7.842;2023-08-07T11:50:44;4.53;;;1.50;;
78752;SDS011;68072;51.688;7.842;2023-08-07T11:53:10;3.13;;;1.47;;
78752;SDS011;68072;51.688;7.842;2023-08-07T11:55:35;6.25;;;1.48;;
78752;SDS011;68072;51.688;7.842;2023-08-07T11:58:04;3.33;;;1.43;;
78752;SDS011;68072;51.688;7.842;2023-08-07T12:00:29;5.93;;;1.88;;
78752;SDS011;68072;51.688;7.842;2023-08-07T12:05:19;2.27;;;1.63;;
78752;SDS011;68072;51.688;7.842;2023-08-07T12:10:10;6.43;;;1.75;;
78752;SDS011;68072;51.688;7.842;2023-08-07T12:12:36;5.00;;;1.57;;
78752;SDS011;68072;51.688;7.842;2023-08-07T12:17:26;3.73;;;1.10;;
78752;SDS011;68072;51.688;7.842;2023-08-07T12:19:56;3.22;;;1.30;;
78752;SDS011;68072;51.688;7.842;2023-08-07T12:22:21;3.75;;;1.45;;
78752;SDS011;68072;51.688;7.842;2023-08-07T12:27:12;2.00;;;1.40;;
78752;SDS011;68072;51.688;7.842;2023-08-07T12:32:02;4.18;;;1.50;;
78752;SDS011;68072;51.688;7.842;2023-08-07T12:34:28;3.85;;;1.40;;
78752;SDS011;68072;51.688;7.842;2023-08-07T12:36:53;2.37;;;1.37;;
78752;SDS011;68072;51.688;7.842;2023-08-07T12:39:19;2.87;;;1.30;;
78752;SDS011;68072;51.688;7.842;2023-08-07T12:41:45;5.25;;;1.70;;
78752;SDS011;68072;51.688;7.842;2023-08-07T12:44:11;4.78;;;1.75;;
78752;SDS011;68072;51.688;7.842;2023-08-07T12:46:37;3.05;;;1.48;;
78752;SDS011;68072;51.688;7.842;2023-08-07T12:49:03;2.90;;;1.30;;
78752;SDS011;68072;51.688;7.842;2023-08-07T12:51:28;1.77;;;1.20;;
78752;SDS011;68072;51.688;7.842;2023-08-07T12:53:53;2.73;;;1.07;;
78752;SDS011;68072;51.688;7.842;2023-08-07T12:56:19;5.37;;;1.30;;
78752;SDS011;68072;51.688;7.842;2023-08-07T12:58:44;2.30;;;1.03;;
78752;SDS011;68072;51.688;7.842;2023-08-07T13:01:10;1.40;;;1.30;;
78752;SDS011;68072;51.688;7.842;2023-08-07T13:03:36;1.87;;;1.47;;
78752;SDS011;68072;51.688;7.842;2023-08-07T13:06:01;2.17;;;1.20;;
78752;SDS011;68072;51.688;7.842;2023-08-07T13:08:30;3.83;;;1.58;;
78752;SDS011;68072;51.688;7.842;2023-08-07T13:10:56;2.10;;;1.38;;
78752;SDS011;68072;51.688;7.842;2023-08-07T13:13:21;1.60;;;1.02;;
78752;SDS011;68072;51.688;7.842;2023-08-07T13:15:48;2.38;;;1.42;;
78752;SDS011;68072;51.688;7.842;2023-08-07T13:18:13;3.88;;;1.20;;
78752;SDS011;68072;51.688;7.842;2023-08-07T13:20:41;6.63;;;1.55;;
78752;SDS011;68072;51.688;7.842;2023-08-07T13:23:07;3.60;;;1.40;;
78752;SDS011;68072;51.688;7.842;2023-08-07T13:27:57;4.73;;;1.30;;
78752;SDS011;68072;51.688;7.842;2023-08-07T13:30:22;5.87;;;1.53;;
78752;SDS011;68072;51.688;7.842;2023-08-07T13:32:48;7.33;;;1.47;;
78752;SDS011;68072;51.688;7.842;2023-08-07T13:35:13;2.57;;;1.20;;
78752;SDS011;68072;51.688;7.842;2023-08-07T13:37:38;2.63;;;1.40;;
78752;SDS011;68072;51.688;7.842;2023-08-07T13:40:05;4.05;;;1.80;;
78752;SDS011;68072;51.688;7.842;2023-08-07T13:42:30;4.85;;;1.42;;
78752;SDS011;68072;51.688;7.842;2023-08-07T13:47:21;4.80;;;1.37;;
78752;SDS011;68072;51.688;7.842;2023-08-07T13:49:47;10.27;;;2.15;;
78752;SDS011;68072;51.688;7.842;2023-08-07T13:52:12;2.30;;;1.60;;
78752;SDS011;68072;51.688;7.842;2023-08-07T13:54:38;3.07;;;1.30;;
78752;SDS011;68072;51.688;7.842;2023-08-07T13:57:03;3.17;;;1.50;;
78752;SDS011;68072;51.688;7.842;2023-08-07T13:59:28;1.83;;;1.33;;
78752;SDS011;68072;51.688;7.842;2023-08-07T14:01:54;2.60;;;1.60;;
78752;SDS011;68072;51.688;7.842;2023-08-07T14:04:21;4.25;;;1.50;;
78752;SDS011;68072;51.688;7.842;2023-08-07T14:09:11;6.18;;;1.73;;
78752;SDS011;68072;51.688;7.842;2023-08-07T14:11:37;6.83;;;1.60;;
78752;SDS011;68072;51.688;7.842;2023-08-07T14:14:03;4.63;;;1.85;;
78752;SDS011;68072;51.688;7.842;2023-08-07T14:16:28;5.50;;;1.70;;
78752;SDS011;68072;51.688;7.842;2023-08-07T14:18:53;3.33;;;2.00;;
78752;SDS011;68072;51.688;7.842;2023-08-07T14:21:19;5.60;;;1.77;;
78752;SDS011;68072;51.688;7.842;2023-08-07T14:23:44;2.85;;;1.48;;
78752;SDS011;68072;51.688;7.842;2023-08-07T14:26:13;2.67;;;1.25;;
78752;SDS011;68072;51.688;7.842;2023-08-07T14:28:39;4.93;;;2.13;;
78752;SDS011;68072;51.688;7.842;2023-08-07T14:31:08;2.00;;;1.80;;
78752;SDS011;68072;51.688;7.842;2023-08-07T14:33:33;3.38;;;1.63;;
78752;SDS011;68072;51.688;7.842;2023-08-07T14:35:58;6.60;;;2.43;;
78752;SDS011;68072;51.688;7.842;2023-08-07T14:38:25;3.95;;;1.70;;
78752;SDS011;68072;51.688;7.842;2023-08-07T14:40:50;4.40;;;1.70;;
78752;SDS011;68072;51.688;7.842;2023-08-07T14:43:15;4.50;;;1.67;;
78752;SDS011;68072;51.688;7.842;2023-08-07T14:45:41;3.63;;;2.17;;
78752;SDS011;68072;51.688;7.842;2023-08-07T14:48:06;8.63;;;3.47;;
78752;SDS011;68072;51.688;7.842;2023-08-07T14:50:32;2.33;;;1.90;;
78752;SDS011;68072;51.688;7.842;2023-08-07T14:52:57;4.73;;;2.20;;
78752;SDS011;68072;51.688;7.842;2023-08-07T14:55:22;5.63;;;1.87;;
78752;SDS011;68072;51.688;7.842;2023-08-07T14:57:47;7.10;;;2.23;;
78752;SDS011;68072;51.688;7.842;2023-08-07T15:00:13;4.17;;;1.90;;
78752;SDS011;68072;51.688;7.842;2023-08-07T15:02:38;4.13;;;1.50;;
78752;SDS011;68072;51.688;7.842;2023-08-07T15:05:05;5.85;;;1.60;;
78752;SDS011;68072;51.688;7.842;2023-08-07T15:07:30;2.45;;;1.60;;